Terminal Aerodrome Forecast
Issued by NWS

Home | Current Version | Previous Version | Text Only | Print | Product List | Glossary On
Versions: 1 2 3 4 5 6 7 8 9 10 11 12 13 14 15 16 17
959
FTUS46 KLOX 241744
TAFVNY
TAF
KVNY 241744Z 2418/2518 00000KT P6SM SCT150
     FM242000 16008KT P6SM SCT150
     FM250300 VRB03KT P6SM SCT150
     FM250800 VRB03KT 5SM BR OVC008
     FM251200 VRB03KT P6SM OVC013=

USA.gov is the U.S. government's official web portal to all federal, state and local government web resources and services.